Portada
METAR-TAF:

METAR-TAF

Aeroports :

Bélgorod, Rússia

latitud: 50-38-36N, longitud: 036-35-24E, altitud: 224 m

Observació

L'informe es va fer fa 15 minuts, a les 02:00 UTC
Vent 2 kt del Oest/Nord-Oest
Temperatura 18°C
Humitat 88%
Pressió 1010 hPa
Visibilitat 10 km o més
sense núvols per sota de 1500 mi sense presència de cumulonimbus.

METAR: UUOB 160200Z 29001MPS CAVOK 18/16 Q1010 R11/010060 NOSIG

Hora: 05:15 (02:15 UTC)

Pronòstic

L'informe es va fer fa 3 hores i 15 minuts, a les 23:00 UTC
Pronòstic vàlid del 16 a les 00 UTC al 16 a les 09 UTC
Vent 6 kt del Est/Nord-Est
Visibilitat 10 km o més
Cel ennuvolat a una alçada de 4000 ft
Temporalment
l' 16 a les 06 UTC al 16 a les 09 UTC
Cel ennuvolat a una alçada de 2000 ft, Cumulonimbus.
tempesta, pluja

TAF: UUOB 152300Z 1600/1609 06003MPS 9999 BKN040 TEMPO 1606/1609 -TSRA BKN020CB

Observacions i pronòstics meteorològics de més de 4000 aeroports (METAR i TAF).

Les estacions disponibles són els punts grocs i vermells al mapa.

Posi el ratolí al punt desitjat per veure el nom de l'estació.

Feu clic per veure les observacions i els pronòstics meteorològics.

Per canviar el mapa: feu clic els botons verds amb una creu de color negre per apropar; al botó verd amb un guió per allunyar la imatge; o en les fletxes verdes per a mapes adjacents.


METAR-TAF: